Time;durP1;ratioP1;P1;durP2;ratioP2;P2;SDS_P1;SDS_P2;PMS_P1;PMS_P2;Temp;Humidity;BMP_temperature;BMP_pressure;BME280_temperature;BME280_humidity;BME280_pressure;Samples;Min_cycle;Max_cycle;Signal;HPM_P1;HPM_P2
2021/07/18 00:01:57;;;;;;;16.45;14.90;;;25.80;99.90;;;;;;5045013;28;20052;-74
2021/07/18 00:04:23;;;;;;;15.82;14.23;;;25.80;99.90;;;;;;5045664;28;20029;-74
2021/07/18 00:06:48;;;;;;;18.08;13.85;;;25.80;99.90;;;;;;5043676;28;20051;-74
2021/07/18 00:09:14;;;;;;;16.70;14.93;;;25.70;99.90;;;;;;5048024;28;20043;-74
2021/07/18 00:11:39;;;;;;;15.98;14.38;;;25.70;99.90;;;;;;5062571;28;20080;-74
2021/07/18 00:14:06;;;;;;;17.77;15.18;;;25.70;99.90;;;;;;5047067;28;20033;-73
2021/07/18 00:16:32;;;;;;;16.70;15.13;;;25.80;99.90;;;;;;5044285;28;20047;-73
2021/07/18 00:18:58;;;;;;;16.17;14.57;;;25.80;99.90;;;;;;5047906;28;20041;-73
2021/07/18 00:21:24;;;;;;;17.00;15.38;;;25.70;99.90;;;;;;5040377;28;20048;-74
2021/07/18 00:23:51;;;;;;;16.77;14.80;;;25.70;99.90;;;;;;5048468;28;20119;-74
2021/07/18 00:26:16;;;;;;;16.88;14.93;;;25.70;99.90;;;;;;5032887;28;20463;-74
2021/07/18 00:28:54;;;;;;;19.73;15.20;;;25.60;99.90;;;;;;5020273;28;20046;-74
2021/07/18 00:31:20;;;;;;;17.42;15.63;;;25.60;99.90;;;;;;5021528;28;20041;-74
2021/07/18 00:33:46;;;;;;;17.20;15.52;;;25.50;99.90;;;;;;5029577;28;20071;-74
2021/07/18 00:36:11;;;;;;;15.80;14.40;;;25.50;99.90;;;;;;5040873;28;20045;-74
2021/07/18 00:38:52;;;;;;;15.90;14.20;;;25.50;99.90;;;;;;5040718;28;20030;-74
2021/07/18 00:41:18;;;;;;;15.88;14.18;;;25.50;99.90;;;;;;5049820;28;20132;-74
2021/07/18 00:43:46;;;;;;;15.90;13.55;;;25.40;99.90;;;;;;5040494;28;20121;-74
2021/07/18 00:46:12;;;;;;;15.43;13.82;;;25.50;99.90;;;;;;5032221;28;20053;-75
2021/07/18 00:49:33;;;;;;;16.13;14.45;;;25.50;99.90;;;;;;5031868;28;20052;-74
2021/07/18 00:52:12;;;;;;;14.68;13.20;;;25.40;99.90;;;;;;4990425;28;20033;-74
2021/07/18 00:54:37;;;;;;;15.90;14.23;;;25.40;99.90;;;;;;5038899;28;20140;-74
2021/07/18 00:57:43;;;;;;;15.07;13.63;;;25.40;99.90;;;;;;5041761;28;20120;-74
2021/07/18 01:00:46;;;;;;;15.40;13.90;;;25.40;99.90;;;;;;5000979;28;20120;-74
2021/07/18 01:03:12;;;;;;;17.70;14.10;;;25.30;99.90;;;;;;5012462;28;20553;-74
2021/07/18 01:05:38;;;;;;;15.73;12.93;;;25.30;99.90;;;;;;5047144;28;20033;-74
2021/07/18 01:08:03;;;;;;;14.48;12.98;;;25.30;99.90;;;;;;5042821;28;20035;-75
2021/07/18 01:10:29;;;;;;;16.55;12.93;;;25.30;99.90;;;;;;5046713;28;20032;-74
2021/07/18 01:12:55;;;;;;;15.23;12.05;;;25.30;99.90;;;;;;5042935;28;20029;-74
2021/07/18 01:15:21;;;;;;;13.70;12.27;;;25.20;99.90;;;;;;5046676;28;20052;-75
2021/07/18 01:17:47;;;;;;;15.18;12.23;;;25.30;99.90;;;;;;5046493;28;20095;-74
2021/07/18 01:20:14;;;;;;;13.77;11.77;;;25.20;99.90;;;;;;5049534;28;20442;-75
2021/07/18 01:22:40;;;;;;;13.52;12.10;;;25.20;99.90;;;;;;5044728;28;20073;-74
2021/07/18 01:25:09;;;;;;;13.82;11.40;;;25.10;99.90;;;;;;5026543;28;20094;-74
2021/07/18 01:27:36;;;;;;;13.05;11.75;;;25.10;99.90;;;;;;5017927;28;20060;-74
2021/07/18 01:30:06;;;;;;;13.30;11.90;;;25.10;99.90;;;;;;5038894;28;20032;-74
2021/07/18 01:32:31;;;;;;;12.00;10.77;;;25.10;99.90;;;;;;5031266;28;20045;-73
2021/07/18 01:34:57;;;;;;;12.15;10.93;;;25.10;99.90;;;;;;5023156;28;20120;-74
2021/07/18 01:37:22;;;;;;;12.40;11.15;;;25.10;99.90;;;;;;5050191;28;20029;-74
2021/07/18 01:39:48;;;;;;;13.18;10.65;;;25.10;99.90;;;;;;5044132;28;20040;-74
2021/07/18 01:42:14;;;;;;;12.65;10.45;;;25.10;99.90;;;;;;5036905;28;20638;-73
2021/07/18 01:44:41;;;;;;;12.90;11.50;;;25.10;99.90;;;;;;5031630;28;20038;-74
2021/07/18 01:47:08;;;;;;;12.30;11.10;;;25.10;99.90;;;;;;5032939;28;20048;-75
2021/07/18 01:49:33;;;;;;;13.10;11.50;;;25.20;99.90;;;;;;5032964;28;20053;-74
2021/07/18 01:51:59;;;;;;;13.02;11.73;;;25.10;99.90;;;;;;5033304;28;20513;-69
2021/07/18 01:54:25;;;;;;;12.82;11.52;;;25.20;99.90;;;;;;5027478;28;20041;-74
2021/07/18 01:56:51;;;;;;;13.88;11.70;;;25.30;99.90;;;;;;5037507;28;20033;-74
2021/07/18 01:59:18;;;;;;;13.57;12.18;;;25.20;99.90;;;;;;5035351;28;20501;-74
2021/07/18 02:01:44;;;;;;;14.25;12.52;;;25.20;99.90;;;;;;5033650;28;20041;-74
2021/07/18 02:04:13;;;;;;;14.57;13.07;;;25.30;99.90;;;;;;5035348;28;20063;-73
2021/07/18 02:06:40;;;;;;;14.30;12.90;;;25.20;99.90;;;;;;5032436;28;20052;-73
2021/07/18 02:09:06;;;;;;;15.10;13.55;;;25.20;99.90;;;;;;5039674;28;20102;-72
2021/07/18 02:11:32;;;;;;;16.77;15.00;;;25.20;99.90;;;;;;5037897;28;20120;-73
2021/07/18 02:13:59;;;;;;;15.02;13.32;;;25.20;99.90;;;;;;5032058;28;20621;-73
2021/07/18 02:16:29;;;;;;;15.20;13.70;;;25.20;99.90;;;;;;5040084;28;20387;-73
2021/07/18 02:18:55;;;;;;;17.13;15.38;;;25.20;99.90;;;;;;5044720;28;20126;-73
2021/07/18 02:21:21;;;;;;;16.15;14.75;;;25.20;99.90;;;;;;5035469;28;20084;-73
2021/07/18 02:23:48;;;;;;;17.08;15.27;;;25.20;99.90;;;;;;5031575;28;20435;-73
2021/07/18 02:26:14;;;;;;;18.73;16.83;;;25.20;99.90;;;;;;5033709;28;20064;-73
2021/07/18 02:28:39;;;;;;;18.25;16.35;;;25.20;99.90;;;;;;5043477;28;20049;-73
2021/07/18 02:31:06;;;;;;;19.40;17.60;;;25.10;99.90;;;;;;5029406;28;20041;-72
2021/07/18 02:33:32;;;;;;;17.15;15.50;;;25.10;99.90;;;;;;5032676;28;20677;-72
2021/07/18 02:35:58;;;;;;;18.08;16.23;;;25.10;99.90;;;;;;5035149;28;20037;-73
2021/07/18 02:38:25;;;;;;;18.52;16.60;;;25.10;99.90;;;;;;5039792;28;20125;-73
2021/07/18 02:40:51;;;;;;;19.33;17.52;;;25.10;99.90;;;;;;5046903;28;20055;-74
2021/07/18 02:43:17;;;;;;;19.75;17.75;;;25.10;99.90;;;;;;5014696;28;20049;-74
2021/07/18 02:45:42;;;;;;;19.67;17.85;;;25.00;99.90;;;;;;5031724;28;20034;-73
2021/07/18 02:48:08;;;;;;;19.02;17.08;;;25.00;99.90;;;;;;5038253;28;20033;-73
2021/07/18 02:50:34;;;;;;;19.45;17.55;;;25.00;99.90;;;;;;5045466;28;20128;-73
2021/07/18 02:53:00;;;;;;;18.98;16.95;;;25.00;99.90;;;;;;5034155;28;20127;-73
2021/07/18 02:55:25;;;;;;;21.00;18.90;;;25.00;99.90;;;;;;5042758;28;20140;-74
2021/07/18 02:58:25;;;;;;;20.77;18.75;;;25.00;99.90;;;;;;5033185;28;20050;-73
2021/07/18 03:00:51;;;;;;;25.27;17.65;;;25.00;99.90;;;;;;5021765;28;20044;-73
2021/07/18 03:03:18;;;;;;;20.33;17.98;;;24.90;99.90;;;;;;5042788;28;20033;-74
2021/07/18 03:05:44;;;;;;;20.45;18.38;;;25.00;99.90;;;;;;5035670;28;20052;-73
2021/07/18 03:08:10;;;;;;;20.55;18.48;;;25.00;99.90;;;;;;5034107;28;20490;-73
2021/07/18 03:10:35;;;;;;;22.88;20.40;;;25.00;99.90;;;;;;5035471;28;20134;-74
2021/07/18 03:13:02;;;;;;;22.08;19.90;;;25.00;99.90;;;;;;5046045;28;20037;-73
2021/07/18 03:15:27;;;;;;;24.48;22.00;;;25.00;99.90;;;;;;5039967;28;20517;-74
2021/07/18 03:17:53;;;;;;;24.30;22.10;;;24.90;99.90;;;;;;5034166;28;20132;-74
2021/07/18 03:20:19;;;;;;;23.83;21.52;;;24.90;99.90;;;;;;5035296;28;20067;-74
2021/07/18 03:22:46;;;;;;;21.73;19.58;;;24.90;99.90;;;;;;5053353;28;20040;-74
2021/07/18 03:25:13;;;;;;;23.50;21.20;;;24.90;99.90;;;;;;5041160;28;20040;-74
2021/07/18 03:27:39;;;;;;;22.92;20.35;;;24.90;99.90;;;;;;5033408;28;20494;-74
2021/07/18 03:30:07;;;;;;;23.17;20.85;;;24.90;99.90;;;;;;5037682;28;20029;-74
2021/07/18 03:32:33;;;;;;;24.38;21.50;;;24.80;99.90;;;;;;5033316;28;20422;-73
2021/07/18 03:34:59;;;;;;;24.13;21.70;;;24.80;99.90;;;;;;5028265;28;20033;-74
2021/07/18 03:37:24;;;;;;;24.50;21.90;;;24.80;99.90;;;;;;5047515;28;20102;-74
2021/07/18 03:39:50;;;;;;;23.95;21.55;;;24.70;99.90;;;;;;5045544;28;20425;-74
2021/07/18 03:42:16;;;;;;;25.42;22.83;;;24.70;99.90;;;;;;5030037;28;20095;-74
2021/07/18 03:44:41;;;;;;;23.77;20.92;;;24.70;99.90;;;;;;5026244;28;20166;-74
2021/07/18 03:47:07;;;;;;;26.08;23.40;;;24.70;99.90;;;;;;5030444;28;20394;-73
2021/07/18 03:49:34;;;;;;;23.08;20.65;;;24.70;99.90;;;;;;5030287;28;20060;-73
2021/07/18 03:51:59;;;;;;;25.67;21.70;;;24.60;99.90;;;;;;5029014;28;20090;-60
2021/07/18 03:54:25;;;;;;;24.75;20.23;;;24.60;99.90;;;;;;5035803;28;20479;-73
2021/07/18 03:56:50;;;;;;;25.13;22.55;;;24.60;99.90;;;;;;5029663;28;20061;-74
2021/07/18 03:59:16;;;;;;;22.50;20.30;;;24.60;99.90;;;;;;5004877;28;20087;-74
2021/07/18 04:01:42;;;;;;;24.05;21.73;;;24.50;99.90;;;;;;5038180;28;20521;-73
2021/07/18 04:04:07;;;;;;;24.67;21.60;;;24.60;99.90;;;;;;5033664;28;20045;-74
2021/07/18 04:06:33;;;;;;;25.23;21.52;;;24.60;99.90;;;;;;5033324;28;20128;-73
2021/07/18 04:09:02;;;;;;;24.20;21.70;;;24.50;99.90;;;;;;5035203;28;20045;-73
2021/07/18 04:11:28;;;;;;;23.10;20.75;;;24.50;99.90;;;;;;5035745;28;20118;-73
2021/07/18 04:14:24;;;;;;;24.75;22.25;;;24.50;99.90;;;;;;5042116;28;20033;-74
2021/07/18 04:16:49;;;;;;;26.55;23.83;;;24.60;99.90;;;;;;4997804;28;20108;-74
2021/07/18 04:19:15;;;;;;;24.38;22.08;;;24.50;99.90;;;;;;5032819;28;20041;-73
2021/07/18 04:22:11;;;;;;;25.70;23.10;;;24.50;99.90;;;;;;5043727;28;20533;-73
2021/07/18 04:24:37;;;;;;;23.63;21.33;;;24.40;99.90;;;;;;5015646;28;20045;-74
2021/07/18 04:27:03;;;;;;;24.52;22.05;;;24.40;99.90;;;;;;5042617;28;20052;-73
2021/07/18 04:29:28;;;;;;;27.67;24.77;;;24.40;99.90;;;;;;5017724;28;20152;-74
2021/07/18 04:31:54;;;;;;;26.05;23.30;;;24.50;99.90;;;;;;5040087;28;20065;-74
2021/07/18 04:34:20;;;;;;;26.20;23.58;;;24.50;99.90;;;;;;5026390;28;20041;-74
2021/07/18 04:36:46;;;;;;;27.85;25.02;;;24.40;99.90;;;;;;5024929;28;20069;-74
2021/07/18 04:39:13;;;;;;;26.20;23.60;;;24.40;99.90;;;;;;5029219;28;20037;-73
2021/07/18 04:41:38;;;;;;;28.55;24.40;;;24.50;99.90;;;;;;5025913;28;20140;-74
2021/07/18 04:44:05;;;;;;;24.92;22.23;;;24.40;99.90;;;;;;5023524;28;20133;-73
2021/07/18 04:46:31;;;;;;;27.60;24.67;;;24.40;99.90;;;;;;5025736;28;20045;-72
2021/07/18 04:48:56;;;;;;;26.92;24.05;;;24.40;99.90;;;;;;5031532;28;20061;-74
2021/07/18 04:51:22;;;;;;;28.17;25.25;;;24.40;99.90;;;;;;5027365;28;20071;-74
2021/07/18 04:53:48;;;;;;;29.63;26.50;;;24.40;99.90;;;;;;5027039;28;20136;-73
2021/07/18 04:56:15;;;;;;;28.40;25.50;;;24.30;99.90;;;;;;5022696;28;20041;-73
2021/07/18 04:58:41;;;;;;;28.48;25.45;;;24.40;99.90;;;;;;5030780;28;20505;-74
2021/07/18 05:01:07;;;;;;;27.30;24.48;;;24.40;99.90;;;;;;5046637;28;20068;-73
2021/07/18 05:03:33;;;;;;;26.85;24.23;;;24.40;99.90;;;;;;5039144;28;20041;-72
2021/07/18 05:05:59;;;;;;;26.33;23.60;;;24.40;99.90;;;;;;5047391;28;20037;-73
2021/07/18 05:08:25;;;;;;;25.83;23.23;;;24.50;99.90;;;;;;5025930;28;20041;-73
2021/07/18 05:10:51;;;;;;;24.20;21.63;;;24.40;99.90;;;;;;5028835;28;20044;-74
2021/07/18 05:13:16;;;;;;;28.35;25.38;;;24.60;99.90;;;;;;5026822;28;20045;-73
2021/07/18 05:15:42;;;;;;;28.23;24.95;;;24.70;99.90;;;;;;5027865;28;20049;-72
2021/07/18 05:18:12;;;;;;;28.95;25.75;;;24.60;99.90;;;;;;5023667;28;20037;-73
2021/07/18 05:20:39;;;;;;;28.40;25.13;;;24.70;99.90;;;;;;5043613;28;20516;-73
2021/07/18 05:23:05;;;;;;;26.27;23.48;;;24.80;99.90;;;;;;5038411;28;20442;-74
2021/07/18 05:25:30;;;;;;;25.83;23.13;;;24.90;99.90;;;;;;5028214;28;20410;-69
2021/07/18 05:27:56;;;;;;;27.15;24.25;;;25.00;99.90;;;;;;5039523;28;20040;-74
2021/07/18 05:30:22;;;;;;;26.58;23.73;;;25.00;99.90;;;;;;5035028;28;20045;-73
2021/07/18 05:32:47;;;;;;;25.15;22.65;;;25.00;99.90;;;;;;5021918;28;20080;-74
2021/07/18 05:35:13;;;;;;;24.70;22.10;;;25.00;99.90;;;;;;5032931;28;20033;-73
2021/07/18 05:37:39;;;;;;;25.67;23.08;;;25.10;99.90;;;;;;5031326;28;20076;-73
2021/07/18 05:40:09;;;;;;;25.48;22.88;;;25.20;99.90;;;;;;5033459;28;20045;-73
2021/07/18 05:42:35;;;;;;;27.23;23.13;;;25.30;99.90;;;;;;5042566;28;20072;-74
2021/07/18 05:45:01;;;;;;;28.13;25.02;;;25.40;99.90;;;;;;5024194;28;20053;-72
2021/07/18 05:47:28;;;;;;;27.55;24.65;;;25.40;99.90;;;;;;5026386;28;20041;-73
2021/07/18 05:49:53;;;;;;;25.38;22.85;;;25.40;99.90;;;;;;5025810;28;20065;-73
2021/07/18 05:52:19;;;;;;;25.95;23.25;;;25.50;99.90;;;;;;5028324;28;20464;-73
2021/07/18 05:54:45;;;;;;;27.45;24.23;;;25.40;99.90;;;;;;5031473;28;20061;-73
2021/07/18 05:57:10;;;;;;;25.92;23.08;;;25.40;99.90;;;;;;5027922;28;20037;-73
2021/07/18 05:59:36;;;;;;;24.98;22.48;;;25.40;99.90;;;;;;5030170;28;20052;-73
2021/07/18 06:02:01;;;;;;;24.83;22.30;;;25.40;99.90;;;;;;5046942;28;20054;-72
2021/07/18 06:04:27;;;;;;;26.33;23.25;;;25.40;99.90;;;;;;5045055;28;20045;-73
2021/07/18 06:06:54;;;;;;;24.80;22.27;;;25.40;99.90;;;;;;5044459;28;20509;-72
2021/07/18 06:09:19;;;;;;;29.35;22.50;;;25.50;99.90;;;;;;5039778;28;21025;-74
2021/07/18 06:11:45;;;;;;;24.85;22.27;;;25.50;99.90;;;;;;5048207;28;20126;-74
2021/07/18 06:14:11;;;;;;;26.08;23.27;;;25.50;99.90;;;;;;5045141;28;20476;-74
2021/07/18 06:16:36;;;;;;;26.60;23.58;;;25.50;99.90;;;;;;5045157;28;20041;-73
2021/07/18 06:19:02;;;;;;;23.88;21.42;;;25.50;99.90;;;;;;5047048;28;20168;-73
2021/07/18 06:21:27;;;;;;;24.55;21.98;;;25.40;99.90;;;;;;5045363;28;20056;-73
2021/07/18 06:23:53;;;;;;;23.90;21.40;;;25.40;99.90;;;;;;5043625;28;20067;-74
2021/07/18 06:26:19;;;;;;;22.35;20.02;;;25.50;99.90;;;;;;5040883;28;20167;-74
2021/07/18 06:28:44;;;;;;;23.35;20.25;;;25.50;99.90;;;;;;5038790;28;20033;-74
2021/07/18 06:31:10;;;;;;;23.58;21.10;;;25.60;99.90;;;;;;5030138;28;20048;-74
2021/07/18 06:33:37;;;;;;;23.75;21.27;;;25.60;99.90;;;;;;5029966;28;20526;-73
2021/07/18 06:36:03;;;;;;;22.88;20.65;;;25.70;99.90;;;;;;5031129;28;20030;-75
2021/07/18 06:38:28;;;;;;;22.67;20.27;;;25.70;99.90;;;;;;5039942;28;20061;-75
2021/07/18 06:40:54;;;;;;;26.08;21.85;;;25.70;99.90;;;;;;5048768;28;20057;-74
2021/07/18 06:43:20;;;;;;;21.58;19.40;;;25.80;99.90;;;;;;5053189;28;20052;-74
2021/07/18 06:45:46;;;;;;;21.73;19.45;;;25.80;99.90;;;;;;5027300;28;20057;-74
2021/07/18 06:48:12;;;;;;;23.38;21.10;;;25.90;99.90;;;;;;5050068;28;20143;-75
2021/07/18 06:50:37;;;;;;;24.15;21.52;;;25.90;99.90;;;;;;5050018;28;20033;-75
2021/07/18 06:53:03;;;;;;;23.58;21.05;;;26.00;99.90;;;;;;5047277;28;20098;-74
2021/07/18 06:55:29;;;;;;;23.23;20.77;;;26.00;99.90;;;;;;5028740;28;20372;-75
2021/07/18 06:57:54;;;;;;;25.00;21.30;;;26.00;99.90;;;;;;5047299;28;20471;-74
2021/07/18 07:00:22;;;;;;;25.50;21.25;;;26.00;99.90;;;;;;5043969;28;20068;-75
2021/07/18 07:02:48;;;;;;;21.77;19.73;;;26.10;99.90;;;;;;5044056;28;20048;-74
2021/07/18 07:05:13;;;;;;;22.40;20.25;;;26.10;99.90;;;;;;5046483;28;20048;-75
2021/07/18 07:07:46;;;;;;;25.08;22.58;;;26.10;99.90;;;;;;5046202;28;20079;-75
2021/07/18 07:10:14;;;;;;;23.30;20.83;;;26.20;99.90;;;;;;5043596;28;20470;-74
2021/07/18 07:12:41;;;;;;;21.42;19.23;;;26.20;99.90;;;;;;5048970;28;20482;-75
2021/07/18 07:15:06;;;;;;;26.08;23.17;;;26.40;99.90;;;;;;5039752;28;20042;-75
2021/07/18 07:17:33;;;;;;;24.50;21.90;;;26.40;99.90;;;;;;5029584;28;20127;-75
2021/07/18 07:19:58;;;;;;;26.60;23.83;;;26.40;99.90;;;;;;5033319;28;20060;-75
2021/07/18 07:22:24;;;;;;;26.98;23.67;;;26.50;99.90;;;;;;5031286;28;20487;-75
2021/07/18 07:24:49;;;;;;;24.45;21.95;;;26.50;99.90;;;;;;5060299;28;20060;-75
2021/07/18 07:27:15;;;;;;;24.45;21.95;;;26.60;99.90;;;;;;5045096;28;20033;-75
2021/07/18 07:29:41;;;;;;;24.38;21.85;;;26.70;99.90;;;;;;5046020;28;20033;-75
2021/07/18 07:32:07;;;;;;;26.50;23.73;;;26.80;99.90;;;;;;5039961;28;20119;-75
2021/07/18 07:34:33;;;;;;;25.92;23.33;;;26.80;99.90;;;;;;5037117;28;20049;-75
2021/07/18 07:36:59;;;;;;;26.58;23.45;;;26.80;99.90;;;;;;5048370;28;20140;-75
2021/07/18 07:39:25;;;;;;;24.70;22.13;;;26.90;99.90;;;;;;5042595;28;20419;-77
2021/07/18 07:41:51;;;;;;;26.00;23.40;;;26.90;99.90;;;;;;5049818;28;20092;-75
2021/07/18 07:44:16;;;;;;;21.95;19.52;;;27.00;99.90;;;;;;5041403;28;20061;-75
2021/07/18 07:46:42;;;;;;;24.83;22.42;;;27.00;99.90;;;;;;5053108;28;20029;-75
2021/07/18 07:49:07;;;;;;;24.85;22.52;;;27.00;99.90;;;;;;5026762;28;20064;-74
2021/07/18 07:51:51;;;;;;;24.35;21.85;;;27.10;99.90;;;;;;5050597;28;20033;-75
2021/07/18 07:54:18;;;;;;;24.90;22.33;;;27.00;99.90;;;;;;5049070;28;20052;-76
2021/07/18 07:56:43;;;;;;;24.63;22.13;;;26.90;99.90;;;;;;5048830;28;20040;-75
2021/07/18 07:59:09;;;;;;;20.65;18.50;;;27.20;99.90;;;;;;5046054;28;20407;-76
2021/07/18 08:01:34;;;;;;;24.20;21.90;;;27.30;99.90;;;;;;5048356;28;20059;-75
2021/07/18 08:04:00;;;;;;;20.92;18.65;;;27.30;99.90;;;;;;5046052;28;20398;-76
2021/07/18 08:06:26;;;;;;;23.60;21.27;;;27.30;99.90;;;;;;5050305;28;20180;-76
2021/07/18 08:08:52;;;;;;;21.05;17.65;;;27.30;99.90;;;;;;5045453;28;20106;-76
2021/07/18 08:11:17;;;;;;;19.63;17.67;;;27.50;99.90;;;;;;5048483;28;20445;-77
2021/07/18 08:13:43;;;;;;;19.42;17.25;;;27.60;99.90;;;;;;5043986;28;20038;-77
2021/07/18 08:16:09;;;;;;;17.67;15.88;;;27.60;99.90;;;;;;5027882;28;20399;-77
2021/07/18 08:18:37;;;;;;;15.90;13.82;;;27.60;99.90;;;;;;5033108;28;20061;-77
2021/07/18 08:21:03;;;;;;;21.15;19.10;;;27.60;99.90;;;;;;5042587;28;20032;-75
2021/07/18 08:23:30;;;;;;;18.80;17.00;;;27.50;99.90;;;;;;5048238;28;20376;-75
2021/07/18 08:25:56;;;;;;;21.38;19.30;;;27.50;99.90;;;;;;5029100;28;20064;-77
2021/07/18 08:28:23;;;;;;;17.33;15.63;;;27.60;99.90;;;;;;5039312;28;20491;-75
2021/07/18 08:30:50;;;;;;;18.42;16.48;;;27.60;99.90;;;;;;5023312;28;20095;-77
2021/07/18 08:33:16;;;;;;;22.23;17.63;;;27.70;99.90;;;;;;5060517;28;20483;-75
2021/07/18 08:35:42;;;;;;;16.83;15.07;;;27.60;99.90;;;;;;5022825;28;20037;-76
2021/07/18 08:38:07;;;;;;;20.23;18.13;;;27.80;99.90;;;;;;5024142;28;20506;-77
2021/07/18 08:40:36;;;;;;;16.02;14.45;;;27.80;99.90;;;;;;5020776;28;20376;-75
2021/07/18 08:43:02;;;;;;;14.73;13.30;;;27.90;99.30;;;;;;5037895;28;20052;-61
2021/07/18 08:45:28;;;;;;;15.60;14.00;;;28.00;99.10;;;;;;5046261;28;20135;-77
2021/07/18 08:47:54;;;;;;;14.07;12.43;;;28.00;98.60;;;;;;5045345;28;20180;-77
2021/07/18 08:50:19;;;;;;;16.52;14.82;;;28.10;98.60;;;;;;5043175;28;20029;-76
2021/07/18 08:52:51;;;;;;;15.30;13.90;;;28.20;98.40;;;;;;5047222;28;20119;-75
2021/07/18 08:55:17;;;;;;;18.23;16.52;;;28.40;97.90;;;;;;5043605;28;20375;-76
2021/07/18 08:57:42;;;;;;;16.92;15.25;;;28.60;97.30;;;;;;5035706;28;20037;-75
2021/07/18 09:00:09;;;;;;;14.50;13.18;;;28.50;97.30;;;;;;5041677;28;20092;-76
2021/07/18 09:02:35;;;;;;;16.40;14.63;;;28.50;97.00;;;;;;5027950;28;20072;-75
2021/07/18 09:05:00;;;;;;;16.02;14.00;;;28.50;96.50;;;;;;5028357;28;22449;-75
2021/07/18 09:07:26;;;;;;;14.32;12.52;;;28.70;96.10;;;;;;5025639;28;20452;-76
2021/07/18 09:10:03;;;;;;;16.67;14.60;;;28.70;96.00;;;;;;5035309;28;20045;-75
2021/07/18 09:12:28;;;;;;;12.23;11.00;;;28.60;95.60;;;;;;5031755;28;20124;-76
2021/07/18 09:14:59;;;;;;;15.85;14.18;;;28.60;95.80;;;;;;5042057;28;20547;-76
2021/07/18 09:17:25;;;;;;;15.77;13.65;;;28.60;94.80;;;;;;5043949;28;20430;-76
2021/07/18 09:19:51;;;;;;;15.55;14.07;;;28.70;95.10;;;;;;5045804;28;20059;-76
2021/07/18 09:22:23;;;;;;;14.82;13.38;;;28.80;95.50;;;;;;5027354;28;20045;-76
2021/07/18 09:24:52;;;;;;;14.75;13.38;;;29.00;94.40;;;;;;5035592;28;20155;-75
2021/07/18 09:27:29;;;;;;;11.98;10.48;;;29.10;94.00;;;;;;5031479;28;20095;-76
2021/07/18 09:30:14;;;;;;;15.70;14.02;;;29.30;93.50;;;;;;5023177;28;20037;-76
2021/07/18 09:32:44;;;;;;;13.27;11.98;;;29.50;92.50;;;;;;5012520;28;20167;-76
2021/07/18 09:35:12;;;;;;;13.43;12.07;;;29.60;92.30;;;;;;5048452;28;20037;-76
2021/07/18 09:37:43;;;;;;;14.40;12.85;;;29.70;91.50;;;;;;5025795;28;20483;-75
2021/07/18 09:40:11;;;;;;;15.10;12.57;;;29.80;92.30;;;;;;5040152;28;20040;-76
2021/07/18 09:42:45;;;;;;;14.60;13.18;;;30.00;92.30;;;;;;5042758;28;20049;-76
2021/07/18 09:45:11;;;;;;;11.93;10.70;;;30.10;92.50;;;;;;5051527;28;20060;-77
2021/07/18 09:47:57;;;;;;;12.63;10.07;;;30.00;92.30;;;;;;5034830;28;20050;-77
2021/07/18 09:50:40;;;;;;;11.50;10.27;;;30.10;91.70;;;;;;5044598;28;20101;-77
2021/07/18 09:53:21;;;;;;;12.98;11.77;;;30.10;91.80;;;;;;5028000;28;20052;-76
2021/07/18 09:55:58;;;;;;;11.77;10.65;;;30.20;91.60;;;;;;5011083;28;20049;-76
2021/07/18 09:58:25;;;;;;;12.13;10.95;;;30.20;91.80;;;;;;5043858;28;20044;-76
2021/07/18 10:00:51;;;;;;;13.75;12.40;;;30.30;91.70;;;;;;5035922;28;20509;-76
2021/07/18 10:03:22;;;;;;;12.95;11.60;;;30.40;91.10;;;;;;5038791;28;20041;-77
2021/07/18 10:06:09;;;;;;;13.00;11.35;;;30.40;90.70;;;;;;5034651;28;20208;-77
2021/07/18 10:08:37;;;;;;;14.18;12.60;;;30.40;90.50;;;;;;5023253;28;20100;-77
2021/07/18 10:11:04;;;;;;;11.38;10.27;;;30.30;90.80;;;;;;5020201;28;20033;-76
2021/07/18 10:13:30;;;;;;;12.90;11.65;;;30.40;90.40;;;;;;5038274;28;20041;-77
2021/07/18 10:15:56;;;;;;;11.93;10.73;;;30.40;90.40;;;;;;5035269;28;20048;-77
2021/07/18 10:18:22;;;;;;;11.35;10.23;;;30.50;90.30;;;;;;5042081;28;21652;-76
2021/07/18 10:20:47;;;;;;;10.50;9.50;;;30.60;89.80;;;;;;5048282;28;20045;-78
2021/07/18 10:23:16;;;;;;;11.65;10.55;;;30.60;88.90;;;;;;5049683;28;20033;-77
2021/07/18 10:25:47;;;;;;;9.45;8.65;;;30.90;87.70;;;;;;5046946;28;20037;-78
2021/07/18 10:28:12;;;;;;;12.15;10.80;;;31.00;87.10;;;;;;5050688;28;20044;-77
2021/07/18 10:30:43;;;;;;;10.40;9.57;;;31.10;86.90;;;;;;5052824;28;20033;-77
2021/07/18 10:33:09;;;;;;;9.68;8.77;;;31.20;86.10;;;;;;5020350;28;20045;-78
2021/07/18 10:35:36;;;;;;;8.18;7.38;;;31.40;84.80;;;;;;5036524;28;20064;-77
2021/07/18 10:38:19;;;;;;;11.77;9.18;;;31.60;84.80;;;;;;5051818;28;20457;-77
2021/07/18 10:40:47;;;;;;;11.18;10.02;;;31.80;82.90;;;;;;5011525;28;20033;-78
2021/07/18 10:43:35;;;;;;;7.90;7.20;;;31.80;82.50;;;;;;5034698;28;20040;-77
2021/07/18 10:46:01;;;;;;;8.20;7.47;;;31.90;81.20;;;;;;5026604;28;20116;-78
2021/07/18 10:48:49;;;;;;;8.20;7.40;;;31.90;79.50;;;;;;5047507;28;20438;-77
2021/07/18 10:51:19;;;;;;;6.85;6.20;;;31.90;75.90;;;;;;4960101;28;20029;-76
2021/07/18 10:53:48;;;;;;;8.13;7.32;;;32.00;78.10;;;;;;5036633;28;20033;-77
2021/07/18 10:56:20;;;;;;;9.32;8.45;;;32.00;78.70;;;;;;5033401;28;20475;-77
2021/07/18 10:58:48;;;;;;;7.28;6.22;;;32.00;76.80;;;;;;5046850;28;20060;-76
2021/07/18 11:01:32;;;;;;;7.63;6.82;;;31.60;78.40;;;;;;5043772;28;20092;-77
2021/07/18 11:03:59;;;;;;;6.13;5.53;;;31.90;75.70;;;;;;5039977;28;20041;-76
2021/07/18 11:06:33;;;;;;;6.43;5.93;;;32.30;75.20;;;;;;5029945;28;20044;-77
2021/07/18 11:09:18;;;;;;;7.60;6.90;;;33.70;70.10;;;;;;5041915;28;20036;-77
2021/07/18 11:11:56;;;;;;;8.00;7.18;;;36.20;62.00;;;;;;5003894;28;20160;-78
2021/07/18 11:14:28;;;;;;;6.90;6.32;;;37.60;56.30;;;;;;5024049;28;20657;-77
2021/07/18 11:16:56;;;;;;;6.63;5.32;;;38.60;49.90;;;;;;5035267;28;20383;-77
2021/07/18 11:19:37;;;;;;;5.82;5.30;;;38.80;48.40;;;;;;5049895;28;20057;-78
2021/07/18 11:22:09;;;;;;;5.97;5.53;;;38.70;45.50;;;;;;5032476;28;20081;-74
2021/07/18 11:24:56;;;;;;;5.70;5.30;;;38.30;46.70;;;;;;5035199;28;20037;-77
2021/07/18 11:27:24;;;;;;;6.07;5.68;;;38.40;45.80;;;;;;5029401;28;20392;-77
2021/07/18 11:29:51;;;;;;;6.25;5.13;;;37.70;47.70;;;;;;5041668;28;20399;-77
2021/07/18 11:32:30;;;;;;;5.43;4.22;;;37.10;49.10;;;;;;5059326;28;20033;-77
2021/07/18 11:34:57;;;;;;;4.25;3.95;;;36.10;47.70;;;;;;5042539;28;20125;-76
2021/07/18 11:37:27;;;;;;;4.55;4.25;;;35.80;50.60;;;;;;5027846;28;20052;-77
2021/07/18 11:40:04;;;;;;;4.72;3.67;;;35.80;50.60;;;;;;5039540;28;20045;-76
2021/07/18 11:42:30;;;;;;;3.70;3.50;;;35.80;49.10;;;;;;5031454;28;20045;-77
2021/07/18 11:44:55;;;;;;;5.43;5.00;;;35.80;49.90;;;;;;5020212;28;20037;-76
2021/07/18 11:47:23;;;;;;;4.85;4.38;;;35.90;51.30;;;;;;5027725;28;20037;-77
2021/07/18 11:49:51;;;;;;;3.92;3.63;;;36.00;50.90;;;;;;5036405;28;20142;-77
2021/07/18 11:52:19;;;;;;;3.65;3.42;;;36.20;47.40;;;;;;5047674;28;20048;-77
2021/07/18 11:54:46;;;;;;;3.75;3.47;;;36.50;47.70;;;;;;5041238;28;20120;-76
2021/07/18 11:57:17;;;;;;;3.67;3.47;;;36.70;46.70;;;;;;5033549;28;20030;-77
2021/07/18 11:59:45;;;;;;;8.15;3.65;;;36.50;45.80;;;;;;5003585;28;20118;-77
2021/07/18 12:02:12;;;;;;;3.83;3.55;;;37.00;45.30;;;;;;5028022;28;20045;-75
2021/07/18 12:04:39;;;;;;;3.65;3.35;;;37.80;42.60;;;;;;5026382;28;20038;-77
2021/07/18 12:07:10;;;;;;;3.10;2.90;;;38.90;39.90;;;;;;5025689;28;20392;-77
2021/07/18 12:09:43;;;;;;;2.70;2.60;;;40.80;37.10;;;;;;5031966;28;20093;-76
2021/07/18 12:12:11;;;;;;;3.33;3.00;;;41.80;33.40;;;;;;5052464;28;20088;-77
2021/07/18 12:14:38;;;;;;;3.10;2.90;;;44.10;31.80;;;;;;5034900;28;20086;-77
2021/07/18 12:17:05;;;;;;;2.88;2.70;;;44.90;30.00;;;;;;5028387;28;20396;-72
2021/07/18 12:19:34;;;;;;;2.78;2.60;;;44.10;29.70;;;;;;5027197;28;20057;-77
2021/07/18 12:22:29;;;;;;;2.80;2.60;;;44.80;28.10;;;;;;5046494;28;20090;-77
2021/07/18 12:24:54;;;;;;;2.67;2.53;;;43.50;26.90;;;;;;5009642;28;20048;-76
2021/07/18 12:27:26;;;;;;;2.50;2.40;;;41.50;28.90;;;;;;5042882;28;20045;-76
2021/07/18 12:30:00;;;;;;;2.50;2.40;;;40.00;28.10;;;;;;5035059;28;20048;-77
2021/07/18 12:32:28;;;;;;;2.55;2.45;;;38.70;29.30;;;;;;5036018;28;20056;-77
2021/07/18 12:34:56;;;;;;;3.22;3.03;;;38.20;30.00;;;;;;5030817;28;20045;-76
2021/07/18 12:37:23;;;;;;;2.72;2.53;;;37.60;30.40;;;;;;5046372;28;20033;-76